Time;durP1;ratioP1;P1;durP2;ratioP2;P2;SDS_P1;SDS_P2;PMS_P1;PMS_P2;Temp;Humidity;BMP_temperature;BMP_pressure;BME280_temperature;BME280_humidity;BME280_pressure;Samples;Min_cycle;Max_cycle;Signal;HPM_P1;HPM_P2
2023/10/05 00:01:46;;;;;;;3.43;2.53;;;22.80;99.90;;;;;;4998975;28;21714;-52
2023/10/05 00:04:15;;;;;;;2.33;1.70;;;22.70;99.90;;;;;;5000265;28;20839;-54
2023/10/05 00:06:44;;;;;;;2.93;2.07;;;22.70;99.90;;;;;;5002540;28;20458;-48
2023/10/05 00:09:13;;;;;;;2.80;2.50;;;22.70;99.90;;;;;;5002305;28;20514;-50
2023/10/05 00:11:42;;;;;;;3.23;2.40;;;22.70;99.90;;;;;;4999393;28;20469;-52
2023/10/05 00:14:10;;;;;;;2.37;2.10;;;22.60;99.90;;;;;;4998028;28;20522;-56
2023/10/05 00:16:37;;;;;;;3.10;2.20;;;22.70;99.90;;;;;;5004545;28;20516;-48
2023/10/05 00:19:09;;;;;;;2.50;2.30;;;22.60;99.90;;;;;;5000204;28;20465;-54
2023/10/05 00:21:36;;;;;;;2.40;2.10;;;22.60;99.90;;;;;;5004464;28;20462;-55
2023/10/05 00:24:06;;;;;;;2.80;2.03;;;22.60;99.90;;;;;;5003487;28;20458;-54
2023/10/05 00:26:33;;;;;;;3.10;2.20;;;22.50;99.90;;;;;;5002346;28;20533;-54
2023/10/05 00:29:07;;;;;;;4.40;2.27;;;22.60;99.90;;;;;;5006334;28;20497;-56
2023/10/05 00:31:38;;;;;;;2.23;1.70;;;22.70;99.90;;;;;;5004238;28;20975;-55
2023/10/05 00:34:08;;;;;;;1.90;1.70;;;22.50;99.90;;;;;;4999056;28;20459;-51
2023/10/05 00:36:39;;;;;;;2.30;2.10;;;22.50;99.90;;;;;;5002490;28;20478;-50
2023/10/05 00:39:09;;;;;;;3.10;2.30;;;22.60;99.90;;;;;;5004428;28;23748;-54
2023/10/05 00:41:36;;;;;;;2.20;2.00;;;22.60;99.90;;;;;;5000621;28;21098;-54
2023/10/05 00:44:06;;;;;;;2.27;1.77;;;22.50;99.90;;;;;;5002454;28;20520;-49
2023/10/05 00:46:34;;;;;;;2.10;1.70;;;22.60;99.90;;;;;;5006727;28;20455;-55
2023/10/05 00:49:12;;;;;;;2.10;1.90;;;22.60;99.90;;;;;;5000184;28;20640;-54
2023/10/05 00:51:40;;;;;;;2.67;2.37;;;22.50;99.90;;;;;;5003401;28;21702;-54
2023/10/05 00:54:11;;;;;;;3.40;2.47;;;22.50;99.90;;;;;;5005421;28;20484;-53
2023/10/05 00:56:41;;;;;;;2.57;2.23;;;22.50;99.90;;;;;;5004544;28;20547;-59
2023/10/05 00:59:15;;;;;;;2.50;1.83;;;22.50;99.90;;;;;;5003738;28;20515;-55
2023/10/05 01:02:02;;;;;;;4.07;2.20;;;22.50;99.90;;;;;;5002776;28;20454;-52
2023/10/05 01:04:34;;;;;;;1.90;1.80;;;22.50;99.90;;;;;;4998161;28;20492;-56
2023/10/05 01:07:17;;;;;;;3.23;2.23;;;22.50;99.90;;;;;;5002328;28;20462;-54
2023/10/05 01:10:01;;;;;;;2.13;1.73;;;22.60;99.90;;;;;;5000113;28;20502;-54
2023/10/05 01:12:38;;;;;;;2.00;1.80;;;22.50;99.90;;;;;;5002626;28;20940;-56
2023/10/05 01:15:11;;;;;;;3.00;2.00;;;22.50;99.90;;;;;;4998571;28;20998;-58
2023/10/05 01:17:39;;;;;;;3.33;2.30;;;22.40;99.90;;;;;;5000991;28;20894;-57
2023/10/05 01:20:11;;;;;;;3.30;2.10;;;22.40;99.90;;;;;;4999971;28;20561;-55
2023/10/05 01:22:39;;;;;;;2.70;2.40;;;22.40;99.90;;;;;;4997908;28;20465;-53
2023/10/05 01:25:12;;;;;;;2.30;2.10;;;22.40;99.90;;;;;;4996421;28;20466;-53
2023/10/05 01:27:40;;;;;;;2.57;2.00;;;22.40;99.90;;;;;;5001055;28;20463;-56
2023/10/05 01:30:09;;;;;;;2.20;1.90;;;22.30;99.90;;;;;;4999876;28;20482;-53
2023/10/05 01:32:35;;;;;;;2.23;2.00;;;22.30;99.90;;;;;;5001154;28;20462;-50
2023/10/05 01:35:09;;;;;;;3.23;2.50;;;22.30;99.90;;;;;;4999817;28;20462;-57
2023/10/05 01:37:36;;;;;;;3.10;2.00;;;22.40;99.90;;;;;;5002771;28;20470;-54
2023/10/05 01:40:11;;;;;;;2.50;1.77;;;22.30;99.90;;;;;;4999849;28;20470;-57
2023/10/05 01:42:43;;;;;;;3.07;2.10;;;22.30;99.90;;;;;;4996597;28;20851;-56
2023/10/05 01:45:15;;;;;;;2.60;2.20;;;22.40;99.90;;;;;;4999654;28;20496;-53
2023/10/05 01:47:43;;;;;;;2.73;2.00;;;22.30;99.90;;;;;;5002047;28;20529;-60
2023/10/05 01:50:18;;;;;;;2.33;1.80;;;22.30;99.90;;;;;;5000655;28;20624;-57
2023/10/05 01:52:46;;;;;;;3.17;2.10;;;22.30;99.90;;;;;;5001354;28;20543;-51
2023/10/05 01:55:14;;;;;;;2.70;2.30;;;22.30;99.90;;;;;;4996562;28;20462;-56
2023/10/05 01:57:44;;;;;;;2.20;2.00;;;22.30;99.90;;;;;;5000228;28;20456;-58
2023/10/05 02:00:19;;;;;;;3.40;2.17;;;22.20;99.90;;;;;;5000113;28;20462;-60
2023/10/05 02:02:48;;;;;;;2.80;1.60;;;22.20;99.90;;;;;;5000412;28;20516;-53
2023/10/05 02:05:18;;;;;;;2.80;2.00;;;22.20;99.90;;;;;;5000941;28;20984;-52
2023/10/05 02:07:47;;;;;;;2.53;2.20;;;22.30;99.90;;;;;;4999808;28;20822;-55
2023/10/05 02:10:19;;;;;;;2.50;1.80;;;22.20;99.90;;;;;;4997802;28;20976;-53
2023/10/05 02:12:53;;;;;;;2.70;1.87;;;22.20;99.90;;;;;;5000673;28;21262;-49
2023/10/05 02:15:20;;;;;;;4.13;2.30;;;22.20;99.90;;;;;;5000207;28;20816;-55
2023/10/05 02:17:47;;;;;;;2.50;2.07;;;22.30;99.90;;;;;;5002819;28;20465;-54
2023/10/05 02:20:38;;;;;;;2.70;2.33;;;22.20;99.90;;;;;;5003554;28;20544;-54
2023/10/05 02:23:22;;;;;;;2.80;1.93;;;22.20;99.90;;;;;;5001434;28;21050;-58
2023/10/05 02:25:54;;;;;;;2.60;2.27;;;22.30;99.90;;;;;;4999455;28;20455;-53
2023/10/05 02:28:25;;;;;;;3.67;2.53;;;22.20;99.90;;;;;;5000903;28;20457;-54
2023/10/05 02:30:53;;;;;;;2.37;2.07;;;22.20;99.90;;;;;;5001106;28;20482;-55
2023/10/05 02:33:24;;;;;;;2.20;1.70;;;22.20;99.90;;;;;;5001402;28;20489;-55
2023/10/05 02:35:55;;;;;;;2.93;1.97;;;22.20;99.90;;;;;;5000238;28;20454;-56
2023/10/05 02:38:22;;;;;;;2.50;2.00;;;22.10;99.90;;;;;;5001373;28;20477;-60
2023/10/05 02:40:54;;;;;;;3.10;1.80;;;22.10;99.90;;;;;;4995890;28;20580;-53
2023/10/05 02:43:27;;;;;;;2.90;1.77;;;22.10;99.90;;;;;;4998407;28;20828;-53
2023/10/05 02:46:01;;;;;;;2.67;2.27;;;22.10;99.90;;;;;;4999452;28;20450;-54
2023/10/05 02:48:30;;;;;;;2.90;1.93;;;22.10;99.90;;;;;;4996669;28;20468;-58
2023/10/05 02:50:57;;;;;;;2.53;1.93;;;22.10;99.90;;;;;;4997583;28;21608;-55
2023/10/05 02:53:25;;;;;;;2.77;1.97;;;22.10;99.90;;;;;;5000577;28;22509;-50
2023/10/05 02:55:54;;;;;;;2.57;1.80;;;22.10;99.90;;;;;;4996837;28;20497;-56
2023/10/05 02:58:23;;;;;;;2.30;1.83;;;22.10;99.90;;;;;;4999364;28;20458;-56
2023/10/05 03:00:49;;;;;;;2.50;2.00;;;22.00;99.90;;;;;;4998145;28;20494;-54
2023/10/05 03:03:17;;;;;;;2.80;2.10;;;22.10;99.90;;;;;;4999241;28;20466;-50
2023/10/05 03:05:44;;;;;;;2.47;1.97;;;22.10;99.90;;;;;;4999065;28;20810;-60
2023/10/05 03:08:11;;;;;;;2.30;1.80;;;22.10;99.90;;;;;;5000876;28;20458;-57
2023/10/05 03:10:38;;;;;;;2.60;2.00;;;22.00;99.90;;;;;;4998099;28;20483;-54
2023/10/05 03:13:05;;;;;;;2.77;2.20;;;22.10;99.90;;;;;;4996472;28;20475;-54
2023/10/05 03:15:34;;;;;;;3.73;2.20;;;22.00;99.90;;;;;;4995366;28;20578;-55
2023/10/05 03:18:01;;;;;;;2.20;1.50;;;22.00;99.90;;;;;;4995693;28;20450;-60
2023/10/05 03:20:29;;;;;;;2.60;2.17;;;22.00;99.90;;;;;;4998458;28;20466;-54
2023/10/05 03:22:56;;;;;;;2.23;1.63;;;22.00;99.90;;;;;;4999967;28;21389;-55
2023/10/05 03:25:23;;;;;;;2.10;1.90;;;22.00;99.90;;;;;;4998273;28;20454;-61
2023/10/05 03:27:50;;;;;;;2.23;1.93;;;22.00;99.90;;;;;;4995272;28;20467;-60
2023/10/05 03:30:17;;;;;;;2.13;1.70;;;22.00;99.90;;;;;;4999381;28;20509;-58
2023/10/05 03:32:48;;;;;;;2.40;2.10;;;22.00;99.90;;;;;;4995282;28;20463;-53
2023/10/05 03:35:22;;;;;;;3.00;1.80;;;22.00;99.90;;;;;;4998571;28;21332;-56
2023/10/05 03:37:49;;;;;;;2.50;1.87;;;22.00;99.90;;;;;;5001579;28;20541;-55
2023/10/05 03:40:22;;;;;;;1.90;1.60;;;22.00;99.90;;;;;;4999505;28;20470;-55
2023/10/05 03:42:56;;;;;;;2.47;1.83;;;22.00;99.90;;;;;;4999069;28;20459;-58
2023/10/05 03:45:24;;;;;;;2.30;1.73;;;22.00;99.90;;;;;;5000531;28;21250;-53
2023/10/05 03:47:53;;;;;;;2.47;1.80;;;22.00;99.90;;;;;;4996100;28;20466;-57
2023/10/05 03:50:21;;;;;;;1.90;1.60;;;21.90;99.90;;;;;;4997362;28;20644;-57
2023/10/05 03:52:49;;;;;;;2.30;1.73;;;21.90;99.90;;;;;;4998592;28;20461;-51
2023/10/05 03:55:18;;;;;;;2.07;1.57;;;21.90;99.90;;;;;;5000208;28;20520;-56
2023/10/05 03:57:46;;;;;;;2.33;2.00;;;21.90;99.90;;;;;;4997395;28;20459;-61
2023/10/05 04:00:31;;;;;;;2.63;2.13;;;21.90;99.90;;;;;;4996367;28;20477;-54
2023/10/05 04:02:59;;;;;;;2.20;1.70;;;21.90;99.90;;;;;;4995966;28;20509;-51
2023/10/05 04:05:26;;;;;;;2.50;1.47;;;21.90;99.90;;;;;;5000590;28;20462;-54
2023/10/05 04:07:55;;;;;;;2.10;1.63;;;21.90;99.90;;;;;;4995578;28;20473;-51
2023/10/05 04:10:23;;;;;;;2.80;2.00;;;21.90;99.90;;;;;;4999945;28;20485;-51
2023/10/05 04:12:51;;;;;;;2.73;2.13;;;21.90;99.90;;;;;;5001665;28;20467;-55
2023/10/05 04:15:20;;;;;;;1.83;1.43;;;21.90;99.90;;;;;;5000051;28;20561;-56
2023/10/05 04:17:49;;;;;;;2.50;1.93;;;21.90;99.90;;;;;;5000504;28;21069;-53
2023/10/05 04:20:27;;;;;;;2.10;1.60;;;21.90;99.90;;;;;;5000379;28;20550;-53
2023/10/05 04:22:54;;;;;;;2.43;1.77;;;21.80;99.90;;;;;;4995761;28;20516;-53
2023/10/05 04:25:20;;;;;;;2.20;2.00;;;21.90;99.90;;;;;;5002298;28;20465;-56
2023/10/05 04:27:48;;;;;;;5.30;1.40;;;21.90;99.90;;;;;;5002206;28;20456;-54
2023/10/05 04:30:18;;;;;;;2.40;1.70;;;21.90;99.90;;;;;;5004772;28;20535;-49
2023/10/05 04:32:48;;;;;;;2.30;2.07;;;21.80;99.90;;;;;;5001198;28;20454;-54
2023/10/05 04:35:22;;;;;;;2.13;1.87;;;21.80;99.90;;;;;;5005799;28;21093;-52
2023/10/05 04:37:49;;;;;;;1.87;1.50;;;21.80;99.90;;;;;;5006150;28;22088;-52
2023/10/05 04:40:17;;;;;;;2.40;1.80;;;21.80;99.90;;;;;;5005607;28;20458;-57
2023/10/05 04:42:44;;;;;;;2.40;1.60;;;21.80;99.90;;;;;;5001152;28;20454;-55
2023/10/05 04:45:12;;;;;;;2.13;1.30;;;21.80;99.90;;;;;;5002464;28;20471;-57
2023/10/05 04:47:39;;;;;;;2.43;1.80;;;21.80;99.90;;;;;;5000676;28;21354;-55
2023/10/05 04:50:07;;;;;;;3.67;2.13;;;21.80;99.90;;;;;;4996550;28;20458;-54
2023/10/05 04:52:35;;;;;;;2.23;1.70;;;21.80;99.90;;;;;;5007264;28;20461;-56
2023/10/05 04:55:18;;;;;;;2.77;1.87;;;21.80;99.90;;;;;;5005189;28;20461;-50
2023/10/05 04:57:52;;;;;;;2.00;1.80;;;21.70;99.90;;;;;;5007077;28;20462;-55
2023/10/05 05:03:17;;;;;;;2.20;2.00;;;21.70;99.90;;;;;;5005415;28;20533;-53
2023/10/05 05:06:08;;;;;;;1.63;1.50;;;21.80;99.90;;;;;;5002848;28;21183;-57
2023/10/05 05:08:38;;;;;;;2.67;1.40;;;21.70;99.90;;;;;;5001987;28;20555;-53
2023/10/05 05:11:08;;;;;;;3.00;2.27;;;21.70;99.90;;;;;;4998794;28;21081;-53
2023/10/05 05:13:36;;;;;;;1.70;1.50;;;21.70;99.90;;;;;;5002632;28;21199;-56
2023/10/05 05:16:05;;;;;;;2.13;1.93;;;21.70;99.90;;;;;;5001449;28;20465;-56
2023/10/05 05:18:31;;;;;;;2.27;1.83;;;21.70;99.90;;;;;;5000290;28;20467;-54
2023/10/05 05:20:58;;;;;;;2.47;2.03;;;21.70;99.90;;;;;;5000002;28;20500;-57
2023/10/05 05:23:25;;;;;;;1.83;1.53;;;21.70;99.90;;;;;;4999684;28;20462;-54
2023/10/05 05:25:54;;;;;;;3.80;2.10;;;21.70;99.90;;;;;;4997675;28;20467;-55
2023/10/05 05:28:21;;;;;;;2.60;1.87;;;21.70;99.90;;;;;;4997557;28;20479;-56
2023/10/05 05:30:48;;;;;;;3.33;1.77;;;21.70;99.90;;;;;;5001889;28;20474;-58
2023/10/05 05:33:17;;;;;;;2.30;1.57;;;21.70;99.90;;;;;;5001695;28;21128;-55
2023/10/05 05:35:44;;;;;;;2.30;1.70;;;21.70;99.90;;;;;;4999685;28;20469;-55
2023/10/05 05:38:11;;;;;;;2.30;1.77;;;21.60;99.90;;;;;;4999230;28;20539;-51
2023/10/05 05:40:38;;;;;;;2.03;1.60;;;21.80;99.90;;;;;;5000479;28;20487;-55
2023/10/05 05:43:08;;;;;;;2.93;1.97;;;21.80;99.90;;;;;;4999342;28;20459;-53
2023/10/05 05:45:39;;;;;;;2.43;1.83;;;21.70;99.90;;;;;;5001093;28;21584;-51
2023/10/05 05:48:09;;;;;;;2.50;1.60;;;21.80;99.90;;;;;;5000691;28;21099;-50
2023/10/05 05:50:39;;;;;;;1.97;1.40;;;21.80;99.90;;;;;;5000452;28;20486;-52
2023/10/05 05:53:08;;;;;;;2.20;1.77;;;21.80;99.90;;;;;;5000770;28;21097;-53
2023/10/05 05:55:35;;;;;;;1.70;1.30;;;21.80;99.90;;;;;;5001110;28;20466;-57
2023/10/05 05:58:01;;;;;;;1.80;1.50;;;21.80;99.90;;;;;;4991484;28;21590;-50
2023/10/05 06:00:30;;;;;;;2.53;1.90;;;21.80;99.90;;;;;;4995600;28;20705;-54
2023/10/05 06:02:58;;;;;;;2.23;1.93;;;21.80;99.90;;;;;;4991752;28;20461;-54
2023/10/05 06:05:25;;;;;;;2.17;1.60;;;21.80;99.90;;;;;;5001599;28;20468;-51
2023/10/05 06:07:52;;;;;;;2.30;1.93;;;21.80;99.90;;;;;;5000481;28;20463;-56
2023/10/05 06:10:28;;;;;;;1.67;1.37;;;21.80;99.90;;;;;;5003257;28;20530;-57
2023/10/05 06:12:55;;;;;;;1.80;1.60;;;21.80;99.90;;;;;;4998345;28;20462;-53
2023/10/05 06:15:22;;;;;;;2.10;1.63;;;21.90;99.90;;;;;;5002781;28;20462;-55
2023/10/05 06:17:50;;;;;;;2.43;1.80;;;21.90;99.90;;;;;;5000216;28;20994;-55
2023/10/05 06:20:17;;;;;;;2.17;2.00;;;21.90;99.90;;;;;;4997640;28;20486;-54
2023/10/05 06:22:45;;;;;;;2.30;1.93;;;21.90;99.90;;;;;;4998647;28;20458;-53
2023/10/05 06:25:13;;;;;;;3.50;2.30;;;21.90;99.90;;;;;;4999360;28;20549;-47
2023/10/05 06:27:39;;;;;;;2.40;2.20;;;21.90;99.90;;;;;;5000524;28;20463;-49
2023/10/05 06:30:08;;;;;;;2.83;1.97;;;21.90;99.90;;;;;;4994541;28;21261;-50
2023/10/05 06:32:35;;;;;;;2.27;1.83;;;21.90;99.90;;;;;;4995398;28;20477;-53
2023/10/05 06:35:07;;;;;;;2.23;1.73;;;21.90;99.90;;;;;;4998107;28;20463;-56
2023/10/05 06:37:35;;;;;;;2.83;2.10;;;21.90;99.90;;;;;;5001675;28;20505;-58
2023/10/05 06:40:05;;;;;;;2.73;2.03;;;21.90;99.90;;;;;;4996794;28;21010;-53
2023/10/05 06:42:32;;;;;;;3.03;2.03;;;21.80;99.90;;;;;;5004062;28;20542;-58
2023/10/05 06:44:59;;;;;;;2.10;1.83;;;21.90;99.90;;;;;;5000254;28;20469;-46
2023/10/05 06:47:36;;;;;;;2.10;1.60;;;21.90;99.90;;;;;;5000683;28;20469;-53
2023/10/05 06:50:08;;;;;;;4.13;2.40;;;21.80;99.90;;;;;;4994400;28;20487;-52
2023/10/05 06:52:39;;;;;;;4.50;1.87;;;21.80;99.90;;;;;;5000669;28;20480;-52
2023/10/05 06:55:07;;;;;;;4.43;1.97;;;21.90;99.90;;;;;;4997946;28;20457;-59
2023/10/05 06:57:36;;;;;;;1.70;1.33;;;21.90;99.90;;;;;;5001785;28;20494;-49
2023/10/05 07:00:11;;;;;;;3.43;2.50;;;21.80;99.90;;;;;;4999986;28;20466;-59
2023/10/05 07:02:38;;;;;;;3.00;1.97;;;21.80;99.90;;;;;;4996486;28;20708;-60
2023/10/05 07:05:07;;;;;;;6.13;2.10;;;21.80;99.90;;;;;;4998699;28;20466;-48
2023/10/05 07:07:34;;;;;;;6.10;2.80;;;21.80;99.90;;;;;;4995241;28;20462;-53
2023/10/05 07:10:03;;;;;;;2.87;1.60;;;21.80;99.90;;;;;;5000494;28;21174;-50
2023/10/05 07:12:30;;;;;;;4.30;2.27;;;21.80;99.90;;;;;;4999042;28;20477;-55
2023/10/05 07:14:57;;;;;;;2.63;2.17;;;21.80;99.90;;;;;;4995277;28;20622;-55
2023/10/05 07:17:26;;;;;;;3.30;2.07;;;21.80;99.90;;;;;;4997941;28;20460;-49
2023/10/05 07:19:53;;;;;;;2.53;1.93;;;21.90;99.90;;;;;;4994952;28;20463;-49
2023/10/05 07:22:22;;;;;;;2.10;1.80;;;21.90;99.90;;;;;;4995854;28;20455;-47
2023/10/05 07:24:49;;;;;;;3.67;2.10;;;21.90;99.90;;;;;;4999095;28;20468;-51
2023/10/05 07:27:16;;;;;;;2.83;1.90;;;21.90;99.90;;;;;;4998338;28;21123;-51
2023/10/05 07:29:45;;;;;;;5.13;2.00;;;21.90;99.90;;;;;;4998236;28;20592;-55
2023/10/05 07:32:12;;;;;;;4.10;2.30;;;21.90;99.90;;;;;;4995404;28;20568;-55
2023/10/05 07:34:39;;;;;;;5.03;2.40;;;21.90;99.90;;;;;;4992071;28;20454;-48
2023/10/05 07:37:06;;;;;;;3.70;2.23;;;21.90;99.90;;;;;;4992528;28;20537;-51
2023/10/05 07:39:34;;;;;;;3.50;1.80;;;21.90;99.90;;;;;;4992975;28;20470;-54
2023/10/05 07:42:01;;;;;;;9.50;2.30;;;21.90;99.90;;;;;;4993000;28;20491;-51
2023/10/05 07:44:28;;;;;;;4.20;2.17;;;21.70;99.90;;;;;;4995253;28;20469;-53
2023/10/05 07:46:55;;;;;;;1.97;1.77;;;21.90;99.90;;;;;;4994895;28;20978;-52
2023/10/05 07:49:21;;;;;;;2.73;1.87;;;21.90;99.90;;;;;;4996303;28;20469;-48
2023/10/05 07:51:48;;;;;;;5.57;1.93;;;21.90;99.90;;;;;;4992309;28;20488;-55
2023/10/05 07:54:15;;;;;;;3.90;2.23;;;22.00;99.90;;;;;;4994422;28;20460;-53
2023/10/05 07:56:43;;;;;;;5.40;2.10;;;22.00;99.90;;;;;;4994423;28;20462;-56
2023/10/05 07:59:09;;;;;;;3.27;2.03;;;22.00;99.90;;;;;;4998753;28;20467;-55
2023/10/05 08:01:36;;;;;;;4.20;1.70;;;21.90;99.90;;;;;;4996031;28;20463;-53
2023/10/05 08:04:03;;;;;;;13.40;2.47;;;22.00;99.90;;;;;;4998520;28;20459;-56
2023/10/05 08:06:30;;;;;;;3.50;1.63;;;22.00;99.90;;;;;;5001142;28;20998;-53
2023/10/05 08:08:56;;;;;;;2.90;1.97;;;22.00;99.90;;;;;;4997225;28;20474;-52
2023/10/05 08:11:23;;;;;;;3.30;2.13;;;22.00;99.90;;;;;;4996297;28;20485;-49
2023/10/05 08:13:52;;;;;;;1.83;1.43;;;22.00;99.90;;;;;;4997435;28;20464;-54
2023/10/05 08:16:18;;;;;;;3.90;1.87;;;22.00;99.90;;;;;;4990747;28;20473;-52
2023/10/05 08:18:45;;;;;;;3.50;2.23;;;22.10;99.90;;;;;;4994752;28;20827;-54
2023/10/05 08:21:12;;;;;;;4.67;2.40;;;22.00;99.90;;;;;;4999578;28;21198;-54
2023/10/05 08:23:38;;;;;;;4.73;1.63;;;22.00;99.90;;;;;;4999085;28;20998;-49
2023/10/05 08:26:07;;;;;;;4.00;2.50;;;22.10;99.90;;;;;;5002734;28;20468;-57
2023/10/05 08:28:34;;;;;;;1.80;1.50;;;22.10;99.90;;;;;;4998505;28;20499;-52
2023/10/05 08:31:06;;;;;;;4.83;2.37;;;22.10;99.90;;;;;;4998373;28;22139;-51
2023/10/05 08:33:34;;;;;;;3.60;1.73;;;22.10;99.90;;;;;;4999910;28;20566;-54
2023/10/05 08:36:06;;;;;;;1.70;1.33;;;22.00;99.90;;;;;;4997024;28;20508;-54
2023/10/05 08:38:33;;;;;;;3.27;2.10;;;22.10;99.90;;;;;;4999464;28;21416;-55
2023/10/05 08:41:06;;;;;;;2.20;1.80;;;22.10;99.90;;;;;;5001658;28;20477;-52
2023/10/05 08:43:35;;;;;;;3.47;1.93;;;22.10;99.90;;;;;;4998451;28;20467;-56
2023/10/05 08:46:10;;;;;;;2.20;2.00;;;22.10;99.90;;;;;;5003054;28;21052;-56
2023/10/05 08:48:38;;;;;;;3.33;2.00;;;22.10;99.90;;;;;;4999329;28;20461;-52
2023/10/05 08:51:10;;;;;;;2.67;1.87;;;22.10;99.90;;;;;;5002943;28;20574;-58
2023/10/05 08:53:43;;;;;;;2.13;1.50;;;22.10;99.90;;;;;;5000453;28;20470;-48
2023/10/05 08:56:13;;;;;;;2.87;2.20;;;22.10;99.90;;;;;;4998939;28;20467;-54
2023/10/05 08:58:41;;;;;;;2.80;1.90;;;22.10;99.90;;;;;;5004699;28;21165;-54
2023/10/05 09:01:27;;;;;;;4.33;1.50;;;22.10;99.90;;;;;;4999245;28;20466;-45
2023/10/05 09:03:54;;;;;;;2.80;1.77;;;22.10;99.90;;;;;;5001734;28;20467;-48
2023/10/05 09:06:21;;;;;;;4.67;1.50;;;22.10;99.90;;;;;;5002229;28;20994;-54
2023/10/05 09:08:53;;;;;;;7.03;2.60;;;22.10;99.90;;;;;;5004894;28;20458;-52
2023/10/05 09:11:29;;;;;;;2.80;1.97;;;22.30;99.90;;;;;;5001425;28;20458;-48
2023/10/05 09:14:08;;;;;;;3.63;2.07;;;22.10;99.90;;;;;;5002476;28;20485;-50
2023/10/05 09:16:41;;;;;;;3.20;2.37;;;22.20;99.90;;;;;;4999240;28;20459;-50
2023/10/05 09:19:12;;;;;;;1.80;1.53;;;22.20;99.90;;;;;;5000474;28;20555;-50
2023/10/05 09:21:44;;;;;;;1.80;1.50;;;22.20;99.90;;;;;;5000821;28;20951;-54
2023/10/05 09:24:20;;;;;;;3.57;1.80;;;22.20;99.90;;;;;;4999940;28;20894;-53
2023/10/05 09:26:51;;;;;;;2.03;1.80;;;22.20;99.90;;;;;;5002154;28;20457;-55
2023/10/05 09:29:22;;;;;;;3.23;2.07;;;22.10;99.90;;;;;;4999049;28;20549;-50
2023/10/05 09:31:54;;;;;;;2.73;2.03;;;22.20;99.90;;;;;;4997612;28;20854;-55
2023/10/05 09:34:39;;;;;;;1.90;1.50;;;22.20;99.90;;;;;;5000131;28;20604;-52
2023/10/05 09:37:08;;;;;;;3.67;1.70;;;22.20;99.90;;;;;;4996916;28;20819;-55
2023/10/05 09:39:42;;;;;;;2.00;1.70;;;22.20;99.90;;;;;;5002435;28;20552;-55
2023/10/05 09:42:16;;;;;;;2.60;1.60;;;22.10;99.90;;;;;;4999773;28;20975;-53
2023/10/05 09:44:51;;;;;;;3.87;2.00;;;22.20;99.90;;;;;;5003091;28;20462;-51
2023/10/05 09:47:25;;;;;;;6.07;2.00;;;22.20;99.90;;;;;;5000034;28;20457;-55
2023/10/05 09:49:55;;;;;;;3.00;1.70;;;22.20;99.90;;;;;;5002047;28;21307;-51
2023/10/05 09:52:24;;;;;;;2.37;1.40;;;22.10;99.90;;;;;;4999658;28;20493;-50
2023/10/05 09:54:51;;;;;;;2.60;2.00;;;22.10;99.90;;;;;;5000588;28;20801;-48
2023/10/05 09:57:23;;;;;;;2.27;1.80;;;22.10;99.90;;;;;;4994265;28;20544;-52
2023/10/05 09:59:57;;;;;;;5.60;2.07;;;22.20;99.90;;;;;;5002851;28;20456;-48
2023/10/05 10:02:30;;;;;;;2.53;1.80;;;22.20;99.90;;;;;;4999580;28;20469;-52
2023/10/05 10:04:59;;;;;;;3.40;1.97;;;22.10;99.90;;;;;;4998277;28;21198;-55
2023/10/05 10:07:32;;;;;;;2.43;1.93;;;22.10;99.90;;;;;;4994758;28;20587;-53
2023/10/05 10:10:01;;;;;;;3.37;1.70;;;22.10;99.90;;;;;;4998937;28;20458;-52
2023/10/05 10:12:33;;;;;;;4.20;1.73;;;22.10;99.90;;;;;;5001018;28;20509;-57
2023/10/05 10:15:00;;;;;;;4.83;1.93;;;22.20;99.90;;;;;;4997581;28;20954;-55
2023/10/05 10:17:33;;;;;;;3.47;1.37;;;22.20;99.90;;;;;;4992809;28;20466;-56
2023/10/05 10:20:17;;;;;;;6.60;2.07;;;22.20;99.90;;;;;;4987641;28;20471;-59
2023/10/05 10:22:50;;;;;;;5.23;2.37;;;22.20;99.90;;;;;;4995672;28;20548;-53
2023/10/05 10:25:38;;;;;;;4.17;1.60;;;22.20;99.90;;;;;;4992782;28;20653;-57
2023/10/05 10:28:16;;;;;;;3.63;2.50;;;22.30;99.90;;;;;;4986409;28;20603;-57
2023/10/05 10:30:47;;;;;;;3.43;1.90;;;22.20;99.90;;;;;;4996413;28;20457;-53
2023/10/05 10:33:27;;;;;;;4.83;1.60;;;22.30;99.90;;;;;;4994137;28;20834;-54
2023/10/05 10:35:56;;;;;;;4.30;2.00;;;22.40;99.90;;;;;;4998286;28;20454;-52
2023/10/05 10:38:24;;;;;;;3.23;1.67;;;22.30;99.90;;;;;;4997124;28;20972;-54
2023/10/05 10:41:10;;;;;;;4.07;1.87;;;22.40;99.90;;;;;;4999657;28;20969;-57
2023/10/05 10:43:37;;;;;;;4.17;1.73;;;22.30;99.90;;;;;;4999703;28;20817;-50
2023/10/05 10:46:13;;;;;;;4.47;2.20;;;22.40;99.90;;;;;;4995453;28;20548;-55
2023/10/05 10:48:57;;;;;;;1.70;1.53;;;22.40;99.90;;;;;;5000407;28;20467;-54
2023/10/05 10:51:24;;;;;;;2.43;1.53;;;22.60;99.90;;;;;;4994520;28;20462;-52
2023/10/05 10:53:56;;;;;;;3.50;1.83;;;22.40;99.90;;;;;;5002162;28;20525;-53
2023/10/05 10:56:29;;;;;;;3.27;1.50;;;22.40;99.90;;;;;;4999844;28;20558;-50
2023/10/05 10:59:09;;;;;;;5.03;1.50;;;22.40;99.90;;;;;;4997936;28;20610;-56
2023/10/05 11:01:43;;;;;;;3.23;1.83;;;22.50;99.90;;;;;;4999097;28;20483;-53
2023/10/05 11:04:23;;;;;;;4.00;2.27;;;22.40;99.90;;;;;;4989699;28;20468;-55
2023/10/05 11:07:05;;;;;;;3.00;2.30;;;22.50;99.90;;;;;;5000074;28;20956;-55
2023/10/05 11:09:37;;;;;;;2.07;1.70;;;22.50;99.90;;;;;;4996485;28;20455;-54
2023/10/05 11:12:12;;;;;;;3.73;1.50;;;22.50;99.90;;;;;;4994318;28;20487;-57
2023/10/05 11:14:42;;;;;;;5.57;2.27;;;22.50;99.90;;;;;;4992309;28;21097;-55
2023/10/05 11:17:24;;;;;;;3.10;1.77;;;22.50;99.90;;;;;;4995411;28;20862;-58
2023/10/05 11:19:52;;;;;;;5.70;2.03;;;22.50;99.90;;;;;;5000596;28;20598;-55
2023/10/05 11:22:24;;;;;;;5.40;1.70;;;22.50;99.90;;;;;;4997601;28;20582;-57
2023/10/05 11:25:14;;;;;;;2.40;2.10;;;22.60;99.90;;;;;;4997243;28;20465;-53
2023/10/05 11:27:47;;;;;;;3.30;1.93;;;22.50;99.90;;;;;;5000198;28;20455;-54
2023/10/05 11:30:19;;;;;;;5.50;1.90;;;22.60;99.90;;;;;;4999585;28;21446;-51
2023/10/05 11:32:47;;;;;;;3.17;2.10;;;22.60;99.90;;;;;;4997593;28;20474;-47
2023/10/05 11:35:15;;;;;;;3.90;1.90;;;22.60;99.90;;;;;;4998137;28;20450;-57
2023/10/05 11:37:45;;;;;;;4.50;1.97;;;22.60;99.90;;;;;;4996233;28;20490;-56
2023/10/05 11:40:23;;;;;;;2.50;1.50;;;22.70;99.90;;;;;;4998621;28;20969;-55
2023/10/05 11:42:51;;;;;;;5.93;1.90;;;22.60;99.90;;;;;;5002535;28;20574;-53
2023/10/05 11:45:19;;;;;;;4.23;1.60;;;22.60;99.90;;;;;;5000824;28;20541;-55
2023/10/05 11:47:52;;;;;;;2.80;1.70;;;22.60;99.90;;;;;;5000542;28;21327;-53
2023/10/05 11:50:32;;;;;;;2.13;1.70;;;22.60;99.90;;;;;;5001995;28;20466;-54
2023/10/05 11:52:59;;;;;;;2.97;1.63;;;22.60;99.90;;;;;;5002230;28;20482;-52
2023/10/05 11:55:26;;;;;;;3.60;1.73;;;22.60;99.90;;;;;;5000724;28;21581;-59
2023/10/05 11:57:53;;;;;;;7.87;1.90;;;22.70;99.90;;;;;;5000890;28;20463;-58
2023/10/05 12:00:20;;;;;;;6.30;1.87;;;22.60;99.90;;;;;;5002177;28;22107;-55
2023/10/05 12:02:47;;;;;;;2.30;1.67;;;22.70;99.90;;;;;;4999565;28;20477;-56
2023/10/05 12:05:13;;;;;;;1.93;1.70;;;22.70;99.90;;;;;;4997994;28;20465;-56
2023/10/05 12:07:45;;;;;;;2.43;1.90;;;22.70;99.90;;;;;;4998256;28;20451;-60
2023/10/05 12:10:13;;;;;;;2.20;1.57;;;22.70;99.90;;;;;;4996036;28;20454;-56
2023/10/05 12:12:41;;;;;;;1.83;1.67;;;22.80;99.90;;;;;;4999120;28;22238;-53
2023/10/05 12:15:14;;;;;;;1.60;1.30;;;22.90;99.90;;;;;;5003248;28;21083;-59
2023/10/05 12:17:41;;;;;;;4.67;1.43;;;22.70;99.90;;;;;;5000977;28;20465;-56
2023/10/05 12:20:12;;;;;;;4.80;1.43;;;22.80;99.90;;;;;;5000889;28;20492;-53
2023/10/05 12:22:39;;;;;;;2.50;1.73;;;22.80;99.90;;;;;;4998020;28;21884;-52
2023/10/05 12:25:09;;;;;;;3.10;1.50;;;22.80;99.90;;;;;;4998703;28;20452;-55
2023/10/05 12:27:36;;;;;;;2.23;1.63;;;22.80;99.90;;;;;;4994592;28;21367;-55
2023/10/05 12:30:10;;;;;;;2.43;1.53;;;22.80;99.90;;;;;;5000059;28;20856;-56
2023/10/05 12:32:38;;;;;;;4.57;2.07;;;22.80;99.90;;;;;;4999652;28;20894;-54
2023/10/05 12:35:07;;;;;;;6.33;2.07;;;22.90;99.90;;;;;;4999523;28;20471;-57
2023/10/05 12:37:34;;;;;;;3.87;2.10;;;22.90;99.90;;;;;;4999581;28;20561;-55
2023/10/05 12:40:17;;;;;;;1.50;1.40;;;23.00;99.90;;;;;;4995234;28;21251;-54
2023/10/05 12:42:51;;;;;;;2.33;1.83;;;23.10;99.90;;;;;;4998019;28;22456;-53
2023/10/05 12:45:20;;;;;;;3.00;1.60;;;22.90;99.90;;;;;;4995399;28;20460;-53
2023/10/05 12:47:48;;;;;;;4.23;2.03;;;23.00;99.90;;;;;;4998696;28;20468;-53
2023/10/05 12:50:15;;;;;;;2.03;1.33;;;22.90;99.90;;;;;;5000763;28;20474;-54
2023/10/05 12:52:41;;;;;;;2.10;1.27;;;23.00;99.90;;;;;;5000936;28;20539;-53
2023/10/05 12:55:08;;;;;;;4.90;1.60;;;22.90;99.90;;;;;;4998325;28;20471;-51
2023/10/05 12:57:36;;;;;;;2.00;1.70;;;22.90;99.90;;;;;;5000577;28;21105;-50
2023/10/05 13:00:19;;;;;;;6.60;1.90;;;22.90;99.90;;;;;;5001558;28;20457;-49
2023/10/05 13:02:47;;;;;;;1.80;1.50;;;22.90;99.90;;;;;;4999190;28;20455;-54
2023/10/05 13:05:18;;;;;;;3.10;1.60;;;23.00;99.90;;;;;;4997092;28;20470;-53
2023/10/05 13:07:44;;;;;;;2.40;1.50;;;23.00;99.90;;;;;;5004092;28;20455;-54